createdAt,value
2019-02-05T00:01:42.577Z,98297.47
2019-02-05T00:04:12.431Z,98299.73
2019-02-05T00:06:42.034Z,98303.65
2019-02-05T00:09:13.210Z,98298.78
2019-02-05T00:11:43.105Z,98308.02
2019-02-05T00:14:12.681Z,98314.27
2019-02-05T00:16:42.622Z,98310.92
2019-02-05T00:19:12.185Z,98317.91
2019-02-05T00:21:41.772Z,98323.55
2019-02-05T00:24:11.376Z,98316.28
2019-02-05T00:26:40.885Z,98321.16
2019-02-05T00:29:10.848Z,98327.98
2019-02-05T00:31:40.425Z,98336.76
2019-02-05T00:34:09.943Z,98337.42
2019-02-05T00:36:39.509Z,98348.28
2019-02-05T00:39:09.761Z,98346.83
2019-02-05T00:41:39.368Z,98355.28
2019-02-05T00:44:09.004Z,98358.14
2019-02-05T00:46:38.534Z,98357.03
2019-02-05T00:49:08.203Z,98349.70
2019-02-05T00:51:37.821Z,98346.20
2019-02-05T00:54:07.420Z,98342.78
2019-02-05T00:56:36.938Z,98342.85
2019-02-05T00:59:06.909Z,98343.95
2019-02-05T01:01:36.506Z,98342.78
2019-02-05T01:04:06.419Z,98344.09
2019-02-05T01:06:35.954Z,98340.70
2019-02-05T01:09:08.084Z,98343.56
2019-02-05T01:11:37.683Z,98331.33
2019-02-05T01:14:07.725Z,98324.70
2019-02-05T01:16:37.311Z,98316.89
2019-02-05T01:19:06.841Z,98318.30
2019-02-05T01:21:36.503Z,98325.05
2019-02-05T01:24:06.315Z,98321.91
2019-02-05T01:26:36.002Z,98327.66
2019-02-05T01:29:05.666Z,98335.93
2019-02-05T01:31:35.186Z,98334.70
2019-02-05T01:34:04.852Z,98330.52
2019-02-05T01:36:34.454Z,98331.84
2019-02-05T01:39:05.538Z,98323.67
2019-02-05T01:41:35.352Z,98316.64
2019-02-05T01:44:05.124Z,98312.08
2019-02-05T01:46:34.738Z,98311.48
2019-02-05T01:49:04.388Z,98308.48
2019-02-05T01:51:33.981Z,98305.02
2019-02-05T01:54:03.522Z,98304.85
2019-02-05T01:56:40.332Z,98304.34
2019-02-05T01:59:06.278Z,98290.02
2019-02-05T02:01:36.071Z,98281.22
2019-02-05T02:04:05.883Z,98281.72
2019-02-05T02:06:35.329Z,98286.87
2019-02-05T02:09:05.685Z,98283.53
2019-02-05T02:11:35.124Z,98279.22
2019-02-05T02:14:04.878Z,98285.73
2019-02-05T02:16:34.317Z,98285.88
2019-02-05T02:19:03.725Z,98290.46
2019-02-05T02:21:33.156Z,98294.56
2019-02-05T02:24:02.799Z,98299.33
2019-02-05T02:26:32.224Z,98298.53
2019-02-05T02:29:01.702Z,98301.73
2019-02-05T02:31:31.156Z,98300.98
2019-02-05T02:34:00.542Z,98307.09
2019-02-05T02:36:29.949Z,98302.47
2019-02-05T02:38:59.381Z,98309.00
2019-02-05T02:41:28.742Z,98311.20
2019-02-05T02:43:58.170Z,98312.17
2019-02-05T02:46:27.545Z,98302.40
2019-02-05T02:48:56.974Z,98289.23
2019-02-05T02:51:26.405Z,98280.83
2019-02-05T02:53:56.166Z,98279.08
2019-02-05T02:56:25.552Z,98278.67
2019-02-05T02:58:54.977Z,98275.42
2019-02-05T03:01:24.416Z,98273.66
2019-02-05T03:03:53.810Z,98283.48
2019-02-05T03:06:23.225Z,98294.48
2019-02-05T03:08:52.601Z,98296.38
2019-02-05T03:11:22.026Z,98293.17
2019-02-05T03:13:51.405Z,98292.64
2019-02-05T03:16:20.853Z,98285.03
2019-02-05T03:18:50.250Z,98279.70
2019-02-05T03:21:19.678Z,98289.59
2019-02-05T03:23:49.078Z,98291.36
2019-02-05T03:26:18.398Z,98285.91
2019-02-05T03:28:47.755Z,98283.50
2019-02-05T03:31:17.420Z,98284.56
2019-02-05T03:33:46.849Z,98290.17
2019-02-05T03:36:16.290Z,98279.02
2019-02-05T03:38:45.705Z,98276.77
2019-02-05T03:41:15.129Z,98275.00
2019-02-05T03:43:44.853Z,98283.25
2019-02-05T03:46:15.529Z,98281.10
2019-02-05T03:48:46.819Z,98274.25
2019-02-05T03:51:58.993Z,98274.27
2019-02-05T03:54:57.167Z,98261.91
2019-02-05T03:58:29.103Z,98255.06
2019-02-05T04:01:20.833Z,98260.48
2019-02-05T04:04:20.864Z,98264.91
2019-02-05T04:07:02.677Z,98262.25
2019-02-05T04:10:40.937Z,98246.91
2019-02-05T04:13:33.726Z,98237.97
2019-02-05T04:16:46.901Z,98233.92
2019-02-05T04:19:28.852Z,98229.67
2019-02-05T04:22:15.959Z,98225.84
2019-02-05T04:25:20.930Z,98227.53
2019-02-05T04:28:09.269Z,98232.44
2019-02-05T04:31:08.751Z,98232.30
2019-02-05T04:33:59.670Z,98243.98
2019-02-05T04:36:57.480Z,98250.83
2019-02-05T04:39:41.196Z,98249.59
2019-02-05T04:43:04.018Z,98252.40
2019-02-05T04:46:19.093Z,98253.48
2019-02-05T04:49:03.433Z,98248.28
2019-02-05T04:51:59.470Z,98238.44
2019-02-05T04:54:53.954Z,98243.66
2019-02-05T04:57:58.041Z,98249.45
2019-02-05T05:00:56.654Z,98250.53
2019-02-05T05:04:09.515Z,98251.93
2019-02-05T05:07:31.513Z,98260.66
2019-02-05T05:10:00.960Z,98266.47
2019-02-05T05:12:30.739Z,98274.38
2019-02-05T05:15:00.750Z,98275.64
2019-02-05T05:17:30.141Z,98270.23
2019-02-05T05:19:59.933Z,98273.02
2019-02-05T05:22:29.387Z,98278.09
2019-02-05T05:24:59.679Z,98288.95
2019-02-05T05:27:29.624Z,98288.65
2019-02-05T05:29:59.022Z,98294.27
2019-02-05T05:32:28.680Z,98292.06
2019-02-05T05:34:58.127Z,98290.31
2019-02-05T05:37:27.501Z,98288.96
2019-02-05T05:39:56.848Z,98295.81
2019-02-05T05:42:27.383Z,98280.92
2019-02-05T05:44:56.727Z,98284.32
2019-02-05T05:47:26.152Z,98270.53
2019-02-05T05:49:55.524Z,98275.41
2019-02-05T05:52:24.926Z,98273.20
2019-02-05T05:54:54.373Z,98274.00
2019-02-05T05:57:23.815Z,98274.05
2019-02-05T05:59:53.287Z,98289.30
2019-02-05T06:02:22.720Z,98294.63
2019-02-05T06:04:52.093Z,98304.97
2019-02-05T06:07:21.525Z,98297.33
2019-02-05T06:09:50.878Z,98297.38
2019-02-05T06:12:20.236Z,98300.98
2019-02-05T06:14:49.979Z,98299.09
2019-02-05T06:17:19.413Z,98307.47
2019-02-05T06:19:48.764Z,98311.45
2019-02-05T06:22:18.428Z,98314.02
2019-02-05T06:24:47.834Z,98327.80
2019-02-05T06:27:17.313Z,98320.50
2019-02-05T06:29:47.079Z,98335.87
2019-02-05T06:32:16.427Z,98338.03
2019-02-05T06:34:45.863Z,98340.66
2019-02-05T06:37:15.236Z,98344.80
2019-02-05T06:39:44.602Z,98346.79
2019-02-05T06:42:13.960Z,98328.90
2019-02-05T06:44:43.304Z,98325.01
2019-02-05T06:47:12.745Z,98329.95
2019-02-05T06:49:42.116Z,98339.86
2019-02-05T06:52:11.575Z,98349.27
2019-02-05T06:54:40.922Z,98344.22
2019-02-05T06:57:10.428Z,98332.59
2019-02-05T06:59:39.799Z,98335.08
2019-02-05T07:02:09.682Z,98334.45
2019-02-05T07:04:39.218Z,98344.62
2019-02-05T07:07:08.664Z,98347.70
2019-02-05T07:09:38.064Z,98354.09
2019-02-05T07:12:07.539Z,98359.52
2019-02-05T07:14:36.917Z,98365.40
2019-02-05T07:17:06.617Z,98381.33
2019-02-05T07:19:36.005Z,98384.13
2019-02-05T07:22:05.646Z,98380.42
2019-02-05T07:24:34.997Z,98390.38
2019-02-05T07:27:04.536Z,98379.09
2019-02-05T07:29:33.913Z,98383.68
2019-02-05T07:32:03.257Z,98380.77
2019-02-05T07:34:32.674Z,98386.68
2019-02-05T07:37:02.038Z,98383.34
2019-02-05T07:39:31.387Z,98375.19
2019-02-05T07:42:00.758Z,98386.53
2019-02-05T07:44:30.093Z,98381.16
2019-02-05T07:46:59.454Z,98382.52
2019-02-05T07:49:28.817Z,98383.28
2019-02-05T07:51:58.605Z,98384.47
2019-02-05T07:54:27.951Z,98376.86
2019-02-05T07:56:57.340Z,98384.09
2019-02-05T07:59:26.786Z,98371.11
2019-02-05T08:01:56.159Z,98367.89
2019-02-05T08:04:25.584Z,98375.98
2019-02-05T08:06:55.049Z,98375.14
2019-02-05T08:09:24.719Z,98376.27
2019-02-05T08:11:54.099Z,98376.33
2019-02-05T08:14:23.784Z,98378.37
2019-02-05T08:16:53.237Z,98380.23
2019-02-05T08:19:22.588Z,98388.91
2019-02-05T08:21:52.027Z,98393.44
2019-02-05T08:24:21.480Z,98394.04
2019-02-05T08:26:51.420Z,98388.50
2019-02-05T08:29:21.913Z,98395.86
2019-02-05T08:31:51.412Z,98391.64
2019-02-05T08:34:22.429Z,98390.95
2019-02-05T08:36:51.845Z,98399.70
2019-02-05T08:39:21.214Z,98398.39
2019-02-05T08:41:50.638Z,98394.94
2019-02-05T08:44:20.061Z,98398.34
2019-02-05T08:46:49.581Z,98389.45
2019-02-05T08:49:18.963Z,98390.06
2019-02-05T08:51:48.435Z,98392.86
2019-02-05T08:54:17.941Z,98399.14
2019-02-05T08:56:47.371Z,98397.95
2019-02-05T08:59:17.183Z,98403.17
2019-02-05T09:01:46.551Z,98401.94
2019-02-05T09:04:15.978Z,98411.66
2019-02-05T09:06:45.405Z,98405.69
2019-02-05T09:09:14.849Z,98396.24
2019-02-05T09:11:44.291Z,98396.94
2019-02-05T09:14:13.666Z,98404.19
2019-02-05T09:16:43.308Z,98411.77
2019-02-05T09:19:12.904Z,98412.12
2019-02-05T09:21:42.500Z,98407.53
2019-02-05T09:24:11.955Z,98412.41
2019-02-05T09:26:41.398Z,98420.80
2019-02-05T09:29:10.823Z,98424.91
2019-02-05T09:31:40.647Z,98428.58
2019-02-05T09:34:10.044Z,98421.19
2019-02-05T09:36:39.418Z,98430.57
2019-02-05T09:39:08.946Z,98437.25
2019-02-05T09:41:38.373Z,98440.26
2019-02-05T09:44:07.731Z,98449.77
2019-02-05T09:46:37.201Z,98446.67
2019-02-05T09:49:06.850Z,98438.42
2019-02-05T09:51:36.358Z,98429.45
2019-02-05T09:54:05.821Z,98449.42
2019-02-05T09:56:35.168Z,98449.20
2019-02-05T09:59:04.883Z,98437.86
2019-02-05T10:01:34.406Z,98443.52
2019-02-05T10:04:04.199Z,98443.67
2019-02-05T10:06:33.635Z,98441.36
2019-02-05T10:09:03.291Z,98438.89
2019-02-05T10:11:32.645Z,98450.62
2019-02-05T10:14:02.026Z,98448.64
2019-02-05T10:16:31.430Z,98445.65
2019-02-05T10:19:00.993Z,98445.99
2019-02-05T10:21:30.676Z,98459.94
2019-02-05T10:24:00.194Z,98450.84
2019-02-05T10:26:29.669Z,98462.38
2019-02-05T10:28:59.042Z,98459.38
2019-02-05T10:31:28.484Z,98458.88
2019-02-05T10:33:57.933Z,98459.98
2019-02-05T10:36:27.661Z,98472.66
2019-02-05T10:38:57.076Z,98465.92
2019-02-05T10:41:26.517Z,98461.03
2019-02-05T10:43:55.866Z,98466.11
2019-02-05T10:46:25.292Z,98458.03
2019-02-05T10:48:54.659Z,98462.98
2019-02-05T10:51:24.157Z,98457.00
2019-02-05T10:53:53.913Z,98461.53
2019-02-05T10:56:23.374Z,98456.23
2019-02-05T10:58:53.177Z,98466.73
2019-02-05T11:01:22.563Z,98461.23
2019-02-05T11:03:52.075Z,98456.82
2019-02-05T11:06:21.444Z,98452.45
2019-02-05T11:08:50.803Z,98464.75
2019-02-05T11:11:20.177Z,98472.08
2019-02-05T11:13:49.573Z,98478.33
2019-02-05T11:16:18.933Z,98483.05
2019-02-05T11:18:48.357Z,98474.13
2019-02-05T11:21:17.709Z,98470.52
2019-02-05T11:23:47.156Z,98473.19
2019-02-05T11:26:17.328Z,98470.13
2019-02-05T11:28:47.063Z,98462.48
2019-02-05T11:31:16.816Z,98462.28
2019-02-05T11:33:46.628Z,98465.17
2019-02-05T11:36:16.476Z,98462.66
2019-02-05T11:38:46.210Z,98463.58
2019-02-05T11:41:15.713Z,98453.80
2019-02-05T11:43:45.166Z,98461.77
2019-02-05T11:46:14.700Z,98466.55
2019-02-05T11:48:44.128Z,98464.89
2019-02-05T11:51:13.755Z,98466.12
2019-02-05T11:53:43.249Z,98469.58
2019-02-05T11:56:12.756Z,98463.98
2019-02-05T11:58:42.291Z,98470.59
2019-02-05T12:01:16.170Z,98461.02
2019-02-05T12:03:45.665Z,98456.02
2019-02-05T12:06:15.102Z,98446.75
2019-02-05T12:08:44.686Z,98450.77
2019-02-05T12:11:14.122Z,98456.92
2019-02-05T12:13:43.761Z,98456.38
2019-02-05T12:16:13.298Z,98445.69
2019-02-05T12:18:42.728Z,98448.92
2019-02-05T12:21:12.310Z,98445.78
2019-02-05T12:23:41.751Z,98449.86
2019-02-05T12:26:11.252Z,98450.91
2019-02-05T12:28:40.698Z,98444.20
2019-02-05T12:31:10.301Z,98439.36
2019-02-05T12:33:39.653Z,98440.30
2019-02-05T12:36:09.109Z,98447.73
2019-02-05T12:38:38.550Z,98446.37
2019-02-05T12:41:07.914Z,98451.69
2019-02-05T12:43:37.295Z,98458.51
2019-02-05T12:46:07.029Z,98450.45
2019-02-05T12:48:36.426Z,98446.28
2019-02-05T12:51:06.342Z,98440.39
2019-02-05T12:53:35.709Z,98444.17
2019-02-05T12:56:05.431Z,98433.91
2019-02-05T12:58:34.859Z,98437.25
2019-02-05T13:01:04.285Z,98436.63
2019-02-05T13:03:33.667Z,98438.97
2019-02-05T13:06:03.087Z,98441.98
2019-02-05T13:08:32.530Z,98448.16
2019-02-05T13:11:01.893Z,98447.42
2019-02-05T13:13:31.446Z,98443.68
2019-02-05T13:16:00.958Z,98457.34
2019-02-05T13:18:30.421Z,98447.25
2019-02-05T13:20:59.897Z,98453.23
2019-02-05T13:23:29.237Z,98455.39
2019-02-05T13:25:58.764Z,98460.73
2019-02-05T13:28:28.146Z,98455.46
2019-02-05T13:31:07.650Z,98467.65
2019-02-05T13:33:30.640Z,98461.84
2019-02-05T13:36:00.004Z,98451.94
2019-02-05T13:38:29.441Z,98465.60
2019-02-05T13:40:58.903Z,98457.11
2019-02-05T13:43:28.401Z,98447.42
2019-02-05T13:45:57.919Z,98441.75
2019-02-05T13:48:27.271Z,98437.84
2019-02-05T13:50:56.695Z,98436.75
2019-02-05T13:53:26.059Z,98431.66
2019-02-05T13:55:55.563Z,98429.33
2019-02-05T13:58:24.910Z,98432.83
2019-02-05T14:00:55.384Z,98434.91
2019-02-05T14:03:24.806Z,98431.09
2019-02-05T14:05:54.189Z,98436.55
2019-02-05T14:08:23.624Z,98443.62
2019-02-05T14:10:53.390Z,98430.98
2019-02-05T14:13:22.748Z,98437.11
2019-02-05T14:15:53.229Z,98438.19
2019-02-05T14:18:23.241Z,98430.94
2019-02-05T14:20:52.759Z,98433.14
2019-02-05T14:23:22.201Z,98436.66
2019-02-05T14:25:51.549Z,98432.46
2019-02-05T14:28:20.905Z,98432.99
2019-02-05T14:30:57.538Z,98422.20
2019-02-05T14:33:28.813Z,98427.25
2019-02-05T14:35:58.249Z,98428.84
2019-02-05T14:38:27.742Z,98421.13
2019-02-05T14:40:57.181Z,98424.30
2019-02-05T14:43:26.824Z,98423.45
2019-02-05T14:45:56.283Z,98418.64
2019-02-05T14:48:25.829Z,98426.92
2019-02-05T14:50:55.259Z,98433.01
2019-02-05T14:53:24.616Z,98438.13
2019-02-05T14:55:54.062Z,98431.67
2019-02-05T14:58:23.695Z,98424.65
2019-02-05T15:00:53.119Z,98424.58
2019-02-05T15:03:22.482Z,98416.81
2019-02-05T15:05:51.853Z,98422.53
2019-02-05T15:08:21.627Z,98416.11
2019-02-05T15:10:51.019Z,98427.83
2019-02-05T15:13:20.533Z,98429.98
2019-02-05T15:15:50.006Z,98425.09
2019-02-05T15:18:23.081Z,98432.00
2019-02-05T15:20:52.512Z,98435.12
2019-02-05T15:23:22.298Z,98431.34
2019-02-05T15:25:52.033Z,98431.37
2019-02-05T15:28:21.477Z,98430.84
2019-02-05T15:30:51.633Z,98424.47
2019-02-05T15:33:38.825Z,98427.98
2019-02-05T15:36:15.168Z,98432.28
2019-02-05T15:38:44.601Z,98428.16
2019-02-05T15:41:13.991Z,98420.34
2019-02-05T15:43:43.481Z,98429.45
2019-02-05T15:46:12.897Z,98425.55
2019-02-05T15:48:42.242Z,98430.65
2019-02-05T15:51:12.002Z,98425.83
2019-02-05T15:53:41.428Z,98417.72
2019-02-05T15:56:10.796Z,98419.43
2019-02-05T15:58:40.230Z,98416.88
2019-02-05T16:01:09.700Z,98427.52
2019-02-05T16:03:39.057Z,98433.30
2019-02-05T16:06:08.491Z,98436.27
2019-02-05T16:08:37.898Z,98426.16
2019-02-05T16:11:07.327Z,98432.13
2019-02-05T16:13:36.688Z,98431.41
2019-02-05T16:16:06.461Z,98431.91
2019-02-05T16:18:35.814Z,98431.10
2019-02-05T16:21:05.266Z,98434.52
2019-02-05T16:23:34.621Z,98425.83
2019-02-05T16:26:04.213Z,98433.24
2019-02-05T16:28:33.582Z,98430.07
2019-02-05T16:31:03.023Z,98426.00
2019-02-05T16:33:32.449Z,98434.05
2019-02-05T16:36:01.869Z,98435.22
2019-02-05T16:38:31.313Z,98437.56
2019-02-05T16:41:00.686Z,98440.72
2019-02-05T16:43:30.137Z,98442.56
2019-02-05T16:45:59.489Z,98441.86
2019-02-05T16:48:28.917Z,98448.72
2019-02-05T16:50:58.435Z,98451.53
2019-02-05T16:53:27.863Z,98453.34
2019-02-05T16:55:57.211Z,98457.99
2019-02-05T16:58:26.605Z,98468.28
2019-02-05T17:00:56.192Z,98465.58
2019-02-05T17:03:25.603Z,98466.53
2019-02-05T17:05:55.222Z,98468.69
2019-02-05T17:08:24.602Z,98475.14
2019-02-05T17:10:53.956Z,98480.14
2019-02-05T17:13:23.505Z,98477.95
2019-02-05T17:15:52.924Z,98481.75
2019-02-05T17:18:24.042Z,98476.16
2019-02-05T17:20:53.733Z,98479.05
2019-02-05T17:23:23.291Z,98484.14
2019-02-05T17:25:52.607Z,98478.59
2019-02-05T17:28:21.976Z,98479.80
2019-02-05T17:30:51.336Z,98480.88
2019-02-05T17:33:20.813Z,98477.98
2019-02-05T17:35:50.221Z,98475.60
2019-02-05T17:38:19.717Z,98476.48
2019-02-05T17:40:49.091Z,98483.37
2019-02-05T17:43:18.506Z,98478.20
2019-02-05T17:45:48.085Z,98481.94
2019-02-05T17:48:18.331Z,98485.47
2019-02-05T17:50:47.736Z,98488.78
2019-02-05T17:53:17.125Z,98489.45
2019-02-05T17:55:46.559Z,98492.98
2019-02-05T17:58:16.291Z,98494.81
2019-02-05T18:00:50.748Z,98490.34
2019-02-05T18:03:20.556Z,98497.30
2019-02-05T18:05:50.265Z,98495.69
2019-02-05T18:08:19.612Z,98494.36
2019-02-05T18:10:49.100Z,98501.08
2019-02-05T18:13:18.515Z,98495.20
2019-02-05T18:15:47.965Z,98496.88
2019-02-05T18:18:17.772Z,98507.37
2019-02-05T18:20:47.591Z,98507.33
2019-02-05T18:23:17.024Z,98510.22
2019-02-05T18:25:46.524Z,98513.97
2019-02-05T18:28:15.871Z,98513.52
2019-02-05T18:30:45.308Z,98511.16
2019-02-05T18:33:15.007Z,98511.16
2019-02-05T18:35:44.434Z,98513.48
2019-02-05T18:38:15.082Z,98518.02
2019-02-05T18:40:44.474Z,98514.95
2019-02-05T18:43:13.892Z,98512.03
2019-02-05T18:45:43.318Z,98512.35
2019-02-05T18:48:12.909Z,98506.74
2019-02-05T18:50:42.402Z,98513.41
2019-02-05T18:53:12.083Z,98513.44
2019-02-05T18:55:41.685Z,98508.79
2019-02-05T18:58:11.135Z,98514.37
2019-02-05T19:00:41.978Z,98510.70
2019-02-05T19:03:15.669Z,98512.70
2019-02-05T19:05:42.788Z,98513.55
2019-02-05T19:08:12.338Z,98506.69
2019-02-05T19:10:41.788Z,98510.86
2019-02-05T19:13:11.204Z,98506.90
2019-02-05T19:15:40.668Z,98514.80
2019-02-05T19:18:10.233Z,98514.45
2019-02-05T19:20:39.646Z,98518.44
2019-02-05T19:23:09.749Z,98515.73
2019-02-05T19:26:04.491Z,98516.94
2019-02-05T19:28:36.211Z,98519.88
2019-02-05T19:31:25.030Z,98527.20
2019-02-05T19:33:54.444Z,98526.62
2019-02-05T19:36:23.806Z,98534.41
2019-02-05T19:38:53.235Z,98521.57
2019-02-05T19:41:22.884Z,98524.98
2019-02-05T19:43:52.293Z,98526.92
2019-02-05T19:46:39.572Z,98531.59
2019-02-05T19:49:34.059Z,98530.98
2019-02-05T19:52:03.481Z,98531.99
2019-02-05T19:54:32.820Z,98539.11
2019-02-05T19:57:02.253Z,98541.14
2019-02-05T19:59:31.605Z,98527.50
2019-02-05T20:02:01.294Z,98534.73
2019-02-05T20:04:30.686Z,98532.23
2019-02-05T20:07:00.119Z,98528.85
2019-02-05T20:09:29.554Z,98523.08
2019-02-05T20:11:58.918Z,98532.70
2019-02-05T20:14:28.259Z,98525.34
2019-02-05T20:16:57.712Z,98524.54
2019-02-05T20:19:27.176Z,98524.00
2019-02-05T20:21:56.558Z,98530.63
2019-02-05T20:24:25.984Z,98525.72
2019-02-05T20:26:55.334Z,98527.55
2019-02-05T20:29:24.723Z,98526.83
2019-02-05T20:31:54.069Z,98523.29
2019-02-05T20:34:23.724Z,98522.37
2019-02-05T20:36:53.171Z,98519.94
2019-02-05T20:39:22.557Z,98520.23
2019-02-05T20:41:52.714Z,98516.45
2019-02-05T20:44:22.193Z,98516.28
2019-02-05T20:46:51.566Z,98529.08
2019-02-05T20:49:20.982Z,98528.06
2019-02-05T20:51:50.594Z,98530.08
2019-02-05T20:54:20.011Z,98525.23
2019-02-05T20:56:49.355Z,98533.95
2019-02-05T20:59:18.830Z,98527.04
2019-02-05T21:01:48.172Z,98526.53
2019-02-05T21:04:17.614Z,98527.54
2019-02-05T21:06:47.423Z,98521.78
2019-02-05T21:09:21.118Z,98515.44
2019-02-05T21:11:50.551Z,98512.83
2019-02-05T21:14:19.990Z,98509.52
2019-02-05T21:16:49.407Z,98521.86
2019-02-05T21:19:18.868Z,98521.39
2019-02-05T21:21:48.709Z,98516.38
2019-02-05T21:24:18.150Z,98524.39
2019-02-05T21:26:47.593Z,98530.95
2019-02-05T21:29:17.023Z,98527.57
2019-02-05T21:31:46.506Z,98534.48
2019-02-05T21:34:16.355Z,98535.52
2019-02-05T21:36:45.776Z,98527.74
2019-02-05T21:39:15.341Z,98517.44
2019-02-05T21:41:44.792Z,98520.13
2019-02-05T21:44:14.226Z,98525.59
2019-02-05T21:46:43.700Z,98532.95
2019-02-05T21:49:13.327Z,98541.73
2019-02-05T21:51:42.890Z,98539.30
2019-02-05T21:54:13.170Z,98536.97
2019-02-05T21:56:42.555Z,98530.56
2019-02-05T21:59:11.937Z,98530.13
2019-02-05T22:01:41.343Z,98522.64
2019-02-05T22:04:10.759Z,98523.97
2019-02-05T22:06:40.153Z,98523.94
2019-02-05T22:09:12.041Z,98525.81
2019-02-05T22:11:41.496Z,98515.70
2019-02-05T22:14:10.962Z,98515.37
2019-02-05T22:16:40.380Z,98513.23
2019-02-05T22:19:10.176Z,98507.13
2019-02-05T22:21:39.603Z,98509.22
2019-02-05T22:24:09.034Z,98506.41
2019-02-05T22:26:38.525Z,98505.42
2019-02-05T22:29:08.272Z,98508.61
2019-02-05T22:31:38.036Z,98516.02
2019-02-05T22:34:07.795Z,98509.22
2019-02-05T22:36:37.201Z,98519.56
2019-02-05T22:39:08.706Z,98524.23
2019-02-05T22:41:38.088Z,98512.73
2019-02-05T22:44:07.505Z,98516.48
2019-02-05T22:46:36.857Z,98523.44
2019-02-05T22:49:06.392Z,98514.68
2019-02-05T22:51:35.810Z,98516.28
2019-02-05T22:54:05.339Z,98512.53
2019-02-05T22:56:34.764Z,98511.93
2019-02-05T22:59:04.878Z,98508.13
2019-02-05T23:01:50.038Z,98506.63
2019-02-05T23:04:50.370Z,98506.77
2019-02-05T23:07:15.514Z,98509.67
2019-02-05T23:10:26.999Z,98518.26
2019-02-05T23:12:59.774Z,98514.94
2019-02-05T23:15:29.412Z,98511.42
2019-02-05T23:17:58.902Z,98508.71
2019-02-05T23:20:28.615Z,98506.92
2019-02-05T23:22:58.132Z,98495.66
2019-02-05T23:25:27.456Z,98499.55
2019-02-05T23:27:56.906Z,98486.86
2019-02-05T23:30:27.847Z,98481.58
2019-02-05T23:32:57.434Z,98492.46
2019-02-05T23:35:27.234Z,98491.21
2019-02-05T23:37:56.591Z,98487.59
2019-02-05T23:40:25.962Z,98482.30
2019-02-05T23:42:55.467Z,98496.33
2019-02-05T23:45:24.888Z,98495.30
2019-02-05T23:47:54.245Z,98485.94
2019-02-05T23:50:23.871Z,98482.05
2019-02-05T23:52:53.308Z,98493.23
2019-02-05T23:55:22.643Z,98478.84
2019-02-05T23:57:52.012Z,98481.30
